»·PEaware :: N241BJ 54AZ-KSAN

N241BJ :: 54AZ-KSAN

FLIGHT INFORMATION

Flight Status: Arrived
Operator: Privately registered:
United States
More flights under this callsign
Pilot: Anonymous 14085 (14085)
Aircraft: BEECH AIRCRAFT BEECH AIRLINER
(B190)
More flights by this aircraft type
Origin: 54AZ Somerton
United States
Destination: KSAN San Diego Intl-Lindbergh
United States
More flights between these airports :: More routes between these airports
Route: +HEEDS V66 MZB
File this flight plan on PilotEdge
Remarks:
Altitude:
(Current/Filed)
15,000ft
Speed:
(Current/Filed)
280kts
Departed: 20-May-17 12:49 PM
Arrived: 20-May-17 01:25 PM
Distance/Time
Traveled:
128nm/0:36
Distance/Time
To Go:
Arrived

Flight Plot

Page will automatically refresh every two minutes.

Flight plan parsing failed; only flown route is shown


Map Options




Map Legend


Flown Route
Filed Route
Departure Airport
Arrival Airport
Navaid (VOR, NDB)
Fix

Horizontal Profiles

Position Reports

Time Latitude Longitude Heading Altitude Ground
Speed
20-May-17 12:29 32.596834 -114.663119 333 182ft 0kts
20-May-17 12:30 32.596834 -114.663119 333 182ft 0kts
20-May-17 12:31 32.596834 -114.663119 333 182ft 0kts
20-May-17 12:32 32.596834 -114.663119 333 182ft 0kts
20-May-17 12:33 32.596834 -114.663119 333 182ft 0kts
20-May-17 12:34 32.596834 -114.663119 333 182ft 0kts
20-May-17 12:35 32.596834 -114.663119 333 182ft 0kts
20-May-17 12:36 32.596834 -114.663119 333 182ft 0kts
20-May-17 12:37 32.596834 -114.663119 333 182ft 0kts
20-May-17 12:38 32.596837 -114.663121 332 182ft 0kts
20-May-17 12:39 32.596837 -114.663121 332 182ft 0kts
20-May-17 12:40 32.596837 -114.663121 332 182ft 0kts
20-May-17 12:41 32.596837 -114.663121 332 182ft 0kts
20-May-17 12:42 32.596837 -114.663121 332 182ft 0kts
20-May-17 12:43 32.596837 -114.663121 332 182ft 0kts
20-May-17 12:44 32.596837 -114.663121 332 182ft 0kts
20-May-17 12:45 32.596837 -114.663121 332 182ft 0kts
20-May-17 12:46 32.596837 -114.663121 332 182ft 0kts
20-May-17 12:47 32.596837 -114.663121 332 182ft 0kts
20-May-17 12:48 32.596837 -114.663121 332 182ft 0kts
20-May-17 12:49 32.596837 -114.663121 332 182ft 0kts
20-May-17 12:50 32.596954 -114.663358 300 182ft 7kts
20-May-17 12:51 32.597679 -114.663847 334 183ft 53kts
20-May-17 12:52 32.626612 -114.682105 324 2868ft 148kts
20-May-17 12:53 32.664259 -114.718497 318 5157ft 183kts
20-May-17 12:54 32.701003 -114.761028 315 7271ft 191kts
20-May-17 12:55 32.737878 -114.806805 313 9127ft 195kts
20-May-17 12:56 32.741328 -114.876352 270 9861ft 242kts
20-May-17 12:57 32.741759 -114.960371 270 9857ft 262kts
20-May-17 12:58 32.742884 -115.047779 270 9881ft 267kts
20-May-17 12:59 32.744108 -115.136085 270 9889ft 268kts
20-May-17 13:00 32.745315 -115.224800 270 9950ft 269kts
20-May-17 13:01 32.746616 -115.312686 270 10775ft 251kts
20-May-17 13:02 32.748081 -115.390049 267 12642ft 232kts
20-May-17 13:03 32.748207 -115.465706 270 13953ft 229kts
20-May-17 13:04 32.749394 -115.542030 274 15035ft 237kts
20-May-17 13:05 32.751573 -115.621297 275 15917ft 246kts
20-May-17 13:06 32.753762 -115.706105 274 15930ft 268kts
20-May-17 13:07 32.755941 -115.795636 274 15929ft 273kts
20-May-17 13:08 32.758073 -115.885916 274 15955ft 274kts
20-May-17 13:09 32.760150 -115.976745 274 15955ft 275kts
20-May-17 13:10 32.762138 -116.066815 274 15297ft 273kts
20-May-17 13:11 32.764043 -116.155884 274 14003ft 268kts
20-May-17 13:12 32.765881 -116.243498 273 11375ft 262kts
20-May-17 13:13 32.767597 -116.325284 272 10001ft 233kts
20-May-17 13:14 32.769076 -116.401341 270 9999ft 228kts
20-May-17 13:15 32.770452 -116.472683 269 9999ft 229kts
20-May-17 13:16 32.771714 -116.549207 269 10001ft 234kts
20-May-17 13:17 32.759616 -116.624013 252 8797ft 234kts
20-May-17 13:18 32.739673 -116.696568 251 7614ft 238kts
20-May-17 13:19 32.719097 -116.770403 251 6337ft 235kts
20-May-17 13:20 32.699223 -116.841797 251 5113ft 220kts
20-May-17 13:21 32.681798 -116.903794 251 4986ft 194kts
20-May-17 13:22 32.679440 -116.966402 286 4160ft 197kts
20-May-17 13:23 32.694285 -117.028681 289 2649ft 196kts
20-May-17 13:24 32.708859 -117.088307 289 1758ft 181kts
20-May-17 13:25 32.720771 -117.138519 289 1108ft 120kts
20-May-17 13:26 32.729866 -117.174361 288 165ft 113kts
20-May-17 13:27 32.733990 -117.188040 30 22ft 12kts

Navigation Log

Ident Type
Flight plan parsing failed, navigation log unavailable